Terminal Aerodrome Forecast
Issued by NWS La Crosse, WI

Home | Current Version | Previous Version | Text Only | Print | Product List | Glossary On
Versions: 1 2 3 4 5 6 7 8 9 10 11 12 13 14 15 16 17 18 19 20 21 22 23 24 25 26 27 28 29 30 31 32 33 34 35 36 37 38 39 40 41 42 43
739
FTUS43 KARX 221511 AAC
TAFRST
TAF AMD
KRST 221511Z 2215/2312 04020G30KT 2SM -SN BKN020
      TEMPO 2215/2219 1/2SM SN BKN003
     FM222000 03018G25KT 1SM -SN OVC004
     FM222300 02017G25KT 3SM -SN BLSN OVC004
     FM230600 35016KT 5SM -SN OVC008=

USA.gov is the U.S. government's official web portal to all federal, state and local government web resources and services.